sensor_id;sensor_type;location;lat;lon;timestamp;temperature;humidity
42135;DHT22;28312;43.460;11.810;2023-09-19T00:00:08;19.70;65.20
42135;DHT22;28312;43.460;11.810;2023-09-19T00:04:12;19.60;65.30
42135;DHT22;28312;43.460;11.810;2023-09-19T00:08:18;19.60;65.60
42135;DHT22;28312;43.460;11.810;2023-09-19T00:12:26;19.50;65.70
42135;DHT22;28312;43.460;11.810;2023-09-19T00:16:30;19.50;65.60
42135;DHT22;28312;43.460;11.810;2023-09-19T00:20:37;19.30;65.80
42135;DHT22;28312;43.460;11.810;2023-09-19T00:24:43;19.30;65.90
42135;DHT22;28312;43.460;11.810;2023-09-19T00:28:46;19.30;66.10
42135;DHT22;28312;43.460;11.810;2023-09-19T00:32:50;19.40;66.00
42135;DHT22;28312;43.460;11.810;2023-09-19T00:36:58;19.40;66.00
42135;DHT22;28312;43.460;11.810;2023-09-19T00:41:03;19.30;66.00
42135;DHT22;28312;43.460;11.810;2023-09-19T00:45:08;19.40;65.90
42135;DHT22;28312;43.460;11.810;2023-09-19T00:49:16;19.40;66.00
42135;DHT22;28312;43.460;11.810;2023-09-19T00:53:23;19.40;66.00
42135;DHT22;28312;43.460;11.810;2023-09-19T00:57:29;19.40;66.20
42135;DHT22;28312;43.460;11.810;2023-09-19T01:01:37;19.50;66.00
42135;DHT22;28312;43.460;11.810;2023-09-19T01:05:42;19.50;65.90
42135;DHT22;28312;43.460;11.810;2023-09-19T01:09:47;19.40;65.60
42135;DHT22;28312;43.460;11.810;2023-09-19T01:14:02;19.40;65.70
42135;DHT22;28312;43.460;11.810;2023-09-19T01:18:38;19.30;66.00
42135;DHT22;28312;43.460;11.810;2023-09-19T01:27:25;19.40;66.20
42135;DHT22;28312;43.460;11.810;2023-09-19T01:31:37;19.40;66.50
42135;DHT22;28312;43.460;11.810;2023-09-19T01:35:41;19.40;66.60
42135;DHT22;28312;43.460;11.810;2023-09-19T01:39:51;19.40;66.50
42135;DHT22;28312;43.460;11.810;2023-09-19T01:43:56;19.40;66.60
42135;DHT22;28312;43.460;11.810;2023-09-19T01:52:32;19.30;67.20
42135;DHT22;28312;43.460;11.810;2023-09-19T01:57:06;19.20;67.60
42135;DHT22;28312;43.460;11.810;2023-09-19T02:01:16;19.20;67.60
42135;DHT22;28312;43.460;11.810;2023-09-19T02:05:23;19.20;67.70
42135;DHT22;28312;43.460;11.810;2023-09-19T02:09:31;19.20;67.90
42135;DHT22;28312;43.460;11.810;2023-09-19T02:13:37;19.40;68.00
42135;DHT22;28312;43.460;11.810;2023-09-19T02:17:44;19.50;68.00
42135;DHT22;28312;43.460;11.810;2023-09-19T02:21:49;19.60;67.80
42135;DHT22;28312;43.460;11.810;2023-09-19T02:25:54;19.60;67.60
42135;DHT22;28312;43.460;11.810;2023-09-19T02:29:57;19.70;67.50
42135;DHT22;28312;43.460;11.810;2023-09-19T02:34:01;19.70;67.40
42135;DHT22;28312;43.460;11.810;2023-09-19T02:38:05;19.70;67.20
42135;DHT22;28312;43.460;11.810;2023-09-19T02:42:10;19.70;67.10
42135;DHT22;28312;43.460;11.810;2023-09-19T02:46:14;19.60;67.10
42135;DHT22;28312;43.460;11.810;2023-09-19T02:50:18;19.50;67.00
42135;DHT22;28312;43.460;11.810;2023-09-19T02:54:21;19.50;67.10
42135;DHT22;28312;43.460;11.810;2023-09-19T02:58:27;19.40;67.20
42135;DHT22;28312;43.460;11.810;2023-09-19T03:02:31;19.40;67.20
42135;DHT22;28312;43.460;11.810;2023-09-19T03:06:38;19.40;67.30
42135;DHT22;28312;43.460;11.810;2023-09-19T03:10:48;19.30;67.50
42135;DHT22;28312;43.460;11.810;2023-09-19T03:14:54;19.30;67.60
42135;DHT22;28312;43.460;11.810;2023-09-19T03:18:59;19.30;67.70
42135;DHT22;28312;43.460;11.810;2023-09-19T03:23:05;19.30;67.70
42135;DHT22;28312;43.460;11.810;2023-09-19T03:27:12;19.30;67.70
42135;DHT22;28312;43.460;11.810;2023-09-19T03:31:17;19.30;67.70
42135;DHT22;28312;43.460;11.810;2023-09-19T03:35:22;19.30;67.80
42135;DHT22;28312;43.460;11.810;2023-09-19T03:39:26;19.20;67.80
42135;DHT22;28312;43.460;11.810;2023-09-19T03:43:31;19.20;68.00
42135;DHT22;28312;43.460;11.810;2023-09-19T03:47:36;19.20;68.00
42135;DHT22;28312;43.460;11.810;2023-09-19T03:51:40;19.20;68.10
42135;DHT22;28312;43.460;11.810;2023-09-19T03:55:45;19.20;68.10
42135;DHT22;28312;43.460;11.810;2023-09-19T03:59:49;19.20;68.20
42135;DHT22;28312;43.460;11.810;2023-09-19T04:03:56;19.20;68.30
42135;DHT22;28312;43.460;11.810;2023-09-19T04:08:00;19.20;67.90
42135;DHT22;28312;43.460;11.810;2023-09-19T04:12:04;19.20;68.20
42135;DHT22;28312;43.460;11.810;2023-09-19T04:16:08;19.20;68.30
42135;DHT22;28312;43.460;11.810;2023-09-19T04:20:12;19.20;68.30
42135;DHT22;28312;43.460;11.810;2023-09-19T04:24:16;19.20;68.30
42135;DHT22;28312;43.460;11.810;2023-09-19T04:28:22;19.20;68.30
42135;DHT22;28312;43.460;11.810;2023-09-19T04:32:29;19.20;68.40
42135;DHT22;28312;43.460;11.810;2023-09-19T04:36:37;19.10;68.40
42135;DHT22;28312;43.460;11.810;2023-09-19T04:40:41;19.00;68.50
42135;DHT22;28312;43.460;11.810;2023-09-19T04:44:44;18.90;68.80
42135;DHT22;28312;43.460;11.810;2023-09-19T04:48:48;18.90;69.00
42135;DHT22;28312;43.460;11.810;2023-09-19T04:52:54;18.80;69.20
42135;DHT22;28312;43.460;11.810;2023-09-19T04:56:58;18.80;69.30
42135;DHT22;28312;43.460;11.810;2023-09-19T05:01:02;18.80;69.40
42135;DHT22;28312;43.460;11.810;2023-09-19T05:05:07;18.80;69.40
42135;DHT22;28312;43.460;11.810;2023-09-19T05:09:11;18.80;69.50
42135;DHT22;28312;43.460;11.810;2023-09-19T05:13:15;18.70;69.50
42135;DHT22;28312;43.460;11.810;2023-09-19T05:17:18;18.70;69.40
42135;DHT22;28312;43.460;11.810;2023-09-19T05:21:22;18.80;69.50
42135;DHT22;28312;43.460;11.810;2023-09-19T05:25:26;18.80;69.50
42135;DHT22;28312;43.460;11.810;2023-09-19T05:29:32;18.80;69.50
42135;DHT22;28312;43.460;11.810;2023-09-19T05:33:36;18.80;69.20
42135;DHT22;28312;43.460;11.810;2023-09-19T05:37:40;18.80;69.40
42135;DHT22;28312;43.460;11.810;2023-09-19T05:41:44;18.80;69.50
42135;DHT22;28312;43.460;11.810;2023-09-19T05:45:48;18.80;69.60
42135;DHT22;28312;43.460;11.810;2023-09-19T05:49:54;18.90;69.60
42135;DHT22;28312;43.460;11.810;2023-09-19T05:53:57;18.90;69.50
42135;DHT22;28312;43.460;11.810;2023-09-19T05:58:01;19.00;69.50
42135;DHT22;28312;43.460;11.810;2023-09-19T06:02:09;19.10;69.50
42135;DHT22;28312;43.460;11.810;2023-09-19T06:06:14;19.10;69.60
42135;DHT22;28312;43.460;11.810;2023-09-19T06:10:19;19.20;69.60
42135;DHT22;28312;43.460;11.810;2023-09-19T06:14:26;19.30;69.80
42135;DHT22;28312;43.460;11.810;2023-09-19T06:18:30;19.40;69.70
42135;DHT22;28312;43.460;11.810;2023-09-19T06:22:36;19.50;69.70
42135;DHT22;28312;43.460;11.810;2023-09-19T06:26:41;19.60;69.60
42135;DHT22;28312;43.460;11.810;2023-09-19T06:30:45;19.70;69.60
42135;DHT22;28312;43.460;11.810;2023-09-19T06:34:52;19.80;69.60
42135;DHT22;28312;43.460;11.810;2023-09-19T06:38:58;19.90;69.50
42135;DHT22;28312;43.460;11.810;2023-09-19T06:43:03;20.10;69.50
42135;DHT22;28312;43.460;11.810;2023-09-19T06:47:08;20.10;69.60
42135;DHT22;28312;43.460;11.810;2023-09-19T06:51:14;20.20;69.30
42135;DHT22;28312;43.460;11.810;2023-09-19T06:55:21;20.40;69.60
42135;DHT22;28312;43.460;11.810;2023-09-19T06:59:25;20.60;69.90
42135;DHT22;28312;43.460;11.810;2023-09-19T07:03:28;20.90;69.80
42135;DHT22;28312;43.460;11.810;2023-09-19T07:07:37;21.20;69.30
42135;DHT22;28312;43.460;11.810;2023-09-19T07:11:45;21.50;68.90
42135;DHT22;28312;43.460;11.810;2023-09-19T07:15:48;21.60;68.70
42135;DHT22;28312;43.460;11.810;2023-09-19T07:19:53;21.60;68.50
42135;DHT22;28312;43.460;11.810;2023-09-19T07:24:00;21.70;68.50
42135;DHT22;28312;43.460;11.810;2023-09-19T07:28:07;21.70;68.40
42135;DHT22;28312;43.460;11.810;2023-09-19T07:32:11;21.70;68.60
42135;DHT22;28312;43.460;11.810;2023-09-19T07:36:17;22.00;69.20
42135;DHT22;28312;43.460;11.810;2023-09-19T07:40:21;22.20;68.80
42135;DHT22;28312;43.460;11.810;2023-09-19T07:44:25;22.40;68.90
42135;DHT22;28312;43.460;11.810;2023-09-19T07:48:29;22.80;69.10
42135;DHT22;28312;43.460;11.810;2023-09-19T07:52:32;23.20;69.20
42135;DHT22;28312;43.460;11.810;2023-09-19T07:56:36;23.70;68.90
42135;DHT22;28312;43.460;11.810;2023-09-19T08:00:40;24.10;68.60
42135;DHT22;28312;43.460;11.810;2023-09-19T08:04:45;24.50;67.90
42135;DHT22;28312;43.460;11.810;2023-09-19T08:08:52;24.80;67.80
42135;DHT22;28312;43.460;11.810;2023-09-19T08:12:59;25.00;67.30
42135;DHT22;28312;43.460;11.810;2023-09-19T08:17:06;25.10;67.20
42135;DHT22;28312;43.460;11.810;2023-09-19T08:21:15;25.20;67.00
42135;DHT22;28312;43.460;11.810;2023-09-19T08:25:20;25.30;66.80
42135;DHT22;28312;43.460;11.810;2023-09-19T08:29:26;25.30;66.70
42135;DHT22;28312;43.460;11.810;2023-09-19T08:33:34;25.40;67.00
42135;DHT22;28312;43.460;11.810;2023-09-19T08:37:38;25.60;67.00
42135;DHT22;28312;43.460;11.810;2023-09-19T08:41:42;25.90;67.00
42135;DHT22;28312;43.460;11.810;2023-09-19T08:45:45;26.20;66.40
42135;DHT22;28312;43.460;11.810;2023-09-19T08:50:11;26.30;66.40
42135;DHT22;28312;43.460;11.810;2023-09-19T08:54:27;26.50;66.40
42135;DHT22;28312;43.460;11.810;2023-09-19T08:58:43;26.70;66.70
42135;DHT22;28312;43.460;11.810;2023-09-19T09:02:49;27.10;66.50
42135;DHT22;28312;43.460;11.810;2023-09-19T09:06:55;27.60;66.30
42135;DHT22;28312;43.460;11.810;2023-09-19T09:11:01;28.30;65.60
42135;DHT22;28312;43.460;11.810;2023-09-19T09:15:05;28.80;65.20
42135;DHT22;28312;43.460;11.810;2023-09-19T09:19:09;29.40;64.90
42135;DHT22;28312;43.460;11.810;2023-09-19T09:23:14;29.80;64.30
42135;DHT22;28312;43.460;11.810;2023-09-19T09:27:17;30.00;64.50
42135;DHT22;28312;43.460;11.810;2023-09-19T09:31:24;30.30;64.30
42135;DHT22;28312;43.460;11.810;2023-09-19T09:35:28;30.80;64.30
42135;DHT22;28312;43.460;11.810;2023-09-19T09:39:31;31.10;63.40
42135;DHT22;28312;43.460;11.810;2023-09-19T09:43:36;31.00;63.20
42135;DHT22;28312;43.460;11.810;2023-09-19T09:47:42;31.00;63.50
42135;DHT22;28312;43.460;11.810;2023-09-19T09:52:05;31.30;63.30
42135;DHT22;28312;43.460;11.810;2023-09-19T09:56:23;31.40;63.10
42135;DHT22;28312;43.460;11.810;2023-09-19T10:00:28;31.50;62.90
42135;DHT22;28312;43.460;11.810;2023-09-19T10:04:48;31.70;62.90
42135;DHT22;28312;43.460;11.810;2023-09-19T10:09:08;32.00;62.00
42135;DHT22;28312;43.460;11.810;2023-09-19T10:13:38;32.00;61.50
42135;DHT22;28312;43.460;11.810;2023-09-19T10:18:30;32.00;61.60
42135;DHT22;28312;43.460;11.810;2023-09-19T10:23:08;32.10;61.50
42135;DHT22;28312;43.460;11.810;2023-09-19T10:27:37;32.30;61.40
42135;DHT22;28312;43.460;11.810;2023-09-19T10:32:06;32.60;60.70
42135;DHT22;28312;43.460;11.810;2023-09-19T10:36:17;32.60;59.80
42135;DHT22;28312;43.460;11.810;2023-09-19T10:40:24;32.40;59.70
42135;DHT22;28312;43.460;11.810;2023-09-19T10:44:33;32.20;59.50
42135;DHT22;28312;43.460;11.810;2023-09-19T10:48:41;32.30;59.50
42135;DHT22;28312;43.460;11.810;2023-09-19T10:52:49;32.10;58.50
42135;DHT22;28312;43.460;11.810;2023-09-19T10:57:01;31.80;59.00
42135;DHT22;28312;43.460;11.810;2023-09-19T11:01:08;31.90;58.80
42135;DHT22;28312;43.460;11.810;2023-09-19T11:05:21;31.80;58.50
42135;DHT22;28312;43.460;11.810;2023-09-19T11:09:25;31.50;58.00
42135;DHT22;28312;43.460;11.810;2023-09-19T11:13:48;31.10;57.10
42135;DHT22;28312;43.460;11.810;2023-09-19T11:27:08;30.60;56.70
42135;DHT22;28312;43.460;11.810;2023-09-19T11:35:58;30.50;56.70
42135;DHT22;28312;43.460;11.810;2023-09-19T11:40:09;30.50;57.00
42135;DHT22;28312;43.460;11.810;2023-09-19T11:48:29;30.50;56.90
42135;DHT22;28312;43.460;11.810;2023-09-19T11:52:34;30.60;56.20
42135;DHT22;28312;43.460;11.810;2023-09-19T11:56:42;30.50;55.50
42135;DHT22;28312;43.460;11.810;2023-09-19T12:00:47;30.20;55.70
42135;DHT22;28312;43.460;11.810;2023-09-19T12:04:57;30.10;55.80
42135;DHT22;28312;43.460;11.810;2023-09-19T12:09:03;30.00;55.70
42135;DHT22;28312;43.460;11.810;2023-09-19T12:13:15;29.90;55.80
42135;DHT22;28312;43.460;11.810;2023-09-19T12:17:21;29.90;55.40
42135;DHT22;28312;43.460;11.810;2023-09-19T12:21:28;29.90;55.10
42135;DHT22;28312;43.460;11.810;2023-09-19T12:25:44;30.10;55.30
42135;DHT22;28312;43.460;11.810;2023-09-19T12:29:51;30.10;55.20
42135;DHT22;28312;43.460;11.810;2023-09-19T12:33:58;30.60;56.80
42135;DHT22;28312;43.460;11.810;2023-09-19T12:38:04;31.40;56.60
42135;DHT22;28312;43.460;11.810;2023-09-19T12:42:09;32.40;56.30
42135;DHT22;28312;43.460;11.810;2023-09-19T12:46:14;33.20;55.50
42135;DHT22;28312;43.460;11.810;2023-09-19T12:50:24;33.50;54.40
42135;DHT22;28312;43.460;11.810;2023-09-19T12:54:39;33.40;54.20
42135;DHT22;28312;43.460;11.810;2023-09-19T12:58:49;33.40;54.30
42135;DHT22;28312;43.460;11.810;2023-09-19T13:03:13;33.60;54.60
42135;DHT22;28312;43.460;11.810;2023-09-19T13:11:42;34.10;53.50
42135;DHT22;28312;43.460;11.810;2023-09-19T13:15:55;33.60;52.90
42135;DHT22;28312;43.460;11.810;2023-09-19T13:20:00;33.40;53.50
42135;DHT22;28312;43.460;11.810;2023-09-19T13:24:18;33.30;52.80
42135;DHT22;28312;43.460;11.810;2023-09-19T13:28:22;33.00;52.70
42135;DHT22;28312;43.460;11.810;2023-09-19T13:32:25;33.20;53.30
42135;DHT22;28312;43.460;11.810;2023-09-19T13:36:29;33.10;51.80
42135;DHT22;28312;43.460;11.810;2023-09-19T13:40:32;32.80;51.60
42135;DHT22;28312;43.460;11.810;2023-09-19T13:44:38;32.50;51.40
42135;DHT22;28312;43.460;11.810;2023-09-19T13:48:41;32.10;51.20
42135;DHT22;28312;43.460;11.810;2023-09-19T13:52:44;31.70;51.00
42135;DHT22;28312;43.460;11.810;2023-09-19T13:56:50;31.30;50.90
42135;DHT22;28312;43.460;11.810;2023-09-19T14:00:53;31.00;50.60
42135;DHT22;28312;43.460;11.810;2023-09-19T14:05:01;30.70;50.70
42135;DHT22;28312;43.460;11.810;2023-09-19T14:09:05;30.50;50.80
42135;DHT22;28312;43.460;11.810;2023-09-19T14:13:08;30.40;51.00
42135;DHT22;28312;43.460;11.810;2023-09-19T14:17:11;30.50;51.30
42135;DHT22;28312;43.460;11.810;2023-09-19T14:21:15;30.90;51.60
42135;DHT22;28312;43.460;11.810;2023-09-19T14:25:18;31.10;51.00
42135;DHT22;28312;43.460;11.810;2023-09-19T14:29:25;31.60;51.40
42135;DHT22;28312;43.460;11.810;2023-09-19T14:33:29;32.10;50.90
42135;DHT22;28312;43.460;11.810;2023-09-19T14:37:34;32.40;49.70
42135;DHT22;28312;43.460;11.810;2023-09-19T14:41:37;32.30;49.90
42135;DHT22;28312;43.460;11.810;2023-09-19T14:45:40;32.60;50.10
42135;DHT22;28312;43.460;11.810;2023-09-19T14:49:44;33.10;49.80
42135;DHT22;28312;43.460;11.810;2023-09-19T14:53:47;33.30;48.90
42135;DHT22;28312;43.460;11.810;2023-09-19T14:57:52;33.40;48.20
42135;DHT22;28312;43.460;11.810;2023-09-19T15:01:55;33.10;47.00
42135;DHT22;28312;43.460;11.810;2023-09-19T15:06:02;32.80;47.40
42135;DHT22;28312;43.460;11.810;2023-09-19T15:10:07;32.70;47.70
42135;DHT22;28312;43.460;11.810;2023-09-19T15:14:12;32.90;47.40
42135;DHT22;28312;43.460;11.810;2023-09-19T15:18:17;32.80;46.90
42135;DHT22;28312;43.460;11.810;2023-09-19T15:22:20;32.60;46.80
42135;DHT22;28312;43.460;11.810;2023-09-19T15:26:24;32.30;46.80
42135;DHT22;28312;43.460;11.810;2023-09-19T15:30:28;32.00;47.00
42135;DHT22;28312;43.460;11.810;2023-09-19T15:34:32;31.60;46.90
42135;DHT22;28312;43.460;11.810;2023-09-19T15:42:58;31.10;47.70
42135;DHT22;28312;43.460;11.810;2023-09-19T15:47:02;31.10;47.80
42135;DHT22;28312;43.460;11.810;2023-09-19T15:51:05;31.00;47.90
42135;DHT22;28312;43.460;11.810;2023-09-19T15:55:08;30.90;47.80
42135;DHT22;28312;43.460;11.810;2023-09-19T15:59:12;30.60;47.70
42135;DHT22;28312;43.460;11.810;2023-09-19T16:03:16;30.40;47.80
42135;DHT22;28312;43.460;11.810;2023-09-19T16:07:23;30.30;48.00
42135;DHT22;28312;43.460;11.810;2023-09-19T16:11:27;30.10;48.10
42135;DHT22;28312;43.460;11.810;2023-09-19T16:15:31;30.00;48.10
42135;DHT22;28312;43.460;11.810;2023-09-19T16:19:35;29.80;48.00
42135;DHT22;28312;43.460;11.810;2023-09-19T16:23:38;29.60;48.10
42135;DHT22;28312;43.460;11.810;2023-09-19T16:27:41;29.40;48.20
42135;DHT22;28312;43.460;11.810;2023-09-19T16:31:45;29.10;48.10
42135;DHT22;28312;43.460;11.810;2023-09-19T16:35:48;29.00;48.30
42135;DHT22;28312;43.460;11.810;2023-09-19T16:39:51;28.80;48.40
42135;DHT22;28312;43.460;11.810;2023-09-19T16:43:55;28.60;48.40
42135;DHT22;28312;43.460;11.810;2023-09-19T16:48:01;28.40;48.50
42135;DHT22;28312;43.460;11.810;2023-09-19T16:52:05;28.20;48.50
42135;DHT22;28312;43.460;11.810;2023-09-19T16:56:08;28.00;48.70
42135;DHT22;28312;43.460;11.810;2023-09-19T17:00:13;27.80;48.90
42135;DHT22;28312;43.460;11.810;2023-09-19T17:04:21;27.60;48.90
42135;DHT22;28312;43.460;11.810;2023-09-19T17:08:30;27.40;48.90
42135;DHT22;28312;43.460;11.810;2023-09-19T17:12:34;27.20;49.10
42135;DHT22;28312;43.460;11.810;2023-09-19T17:16:39;27.10;49.20
42135;DHT22;28312;43.460;11.810;2023-09-19T17:20:43;26.90;49.40
42135;DHT22;28312;43.460;11.810;2023-09-19T17:24:46;26.70;49.40
42135;DHT22;28312;43.460;11.810;2023-09-19T17:28:52;26.50;49.50
42135;DHT22;28312;43.460;11.810;2023-09-19T17:32:56;26.40;49.60
42135;DHT22;28312;43.460;11.810;2023-09-19T17:36:59;26.20;49.80
42135;DHT22;28312;43.460;11.810;2023-09-19T17:41:03;26.00;49.90
42135;DHT22;28312;43.460;11.810;2023-09-19T17:45:08;25.90;49.90
42135;DHT22;28312;43.460;11.810;2023-09-19T17:49:13;25.70;50.10
42135;DHT22;28312;43.460;11.810;2023-09-19T17:53:17;25.60;50.20
42135;DHT22;28312;43.460;11.810;2023-09-19T17:57:20;25.60;50.30
42135;DHT22;28312;43.460;11.810;2023-09-19T18:01:25;25.40;50.30
42135;DHT22;28312;43.460;11.810;2023-09-19T18:05:31;25.30;50.40
42135;DHT22;28312;43.460;11.810;2023-09-19T18:09:37;25.10;50.50
42135;DHT22;28312;43.460;11.810;2023-09-19T18:13:44;25.10;50.60
42135;DHT22;28312;43.460;11.810;2023-09-19T18:17:48;24.90;50.70
42135;DHT22;28312;43.460;11.810;2023-09-19T18:21:51;24.90;50.80
42135;DHT22;28312;43.460;11.810;2023-09-19T18:25:58;24.70;50.90
42135;DHT22;28312;43.460;11.810;2023-09-19T18:30:04;24.60;50.90
42135;DHT22;28312;43.460;11.810;2023-09-19T18:34:08;24.60;51.00
42135;DHT22;28312;43.460;11.810;2023-09-19T18:38:12;24.50;51.00
42135;DHT22;28312;43.460;11.810;2023-09-19T18:42:15;24.50;51.00
42135;DHT22;28312;43.460;11.810;2023-09-19T18:46:19;24.50;51.10
42135;DHT22;28312;43.460;11.810;2023-09-19T18:50:22;24.40;51.00
42135;DHT22;28312;43.460;11.810;2023-09-19T18:54:26;24.40;51.20
42135;DHT22;28312;43.460;11.810;2023-09-19T18:58:30;24.30;51.20
42135;DHT22;28312;43.460;11.810;2023-09-19T19:02:33;24.20;51.20
42135;DHT22;28312;43.460;11.810;2023-09-19T19:06:37;24.20;51.30
42135;DHT22;28312;43.460;11.810;2023-09-19T19:10:42;24.10;51.30
42135;DHT22;28312;43.460;11.810;2023-09-19T19:14:47;24.10;51.40
42135;DHT22;28312;43.460;11.810;2023-09-19T19:18:50;24.10;51.40
42135;DHT22;28312;43.460;11.810;2023-09-19T19:22:56;24.10;51.30
42135;DHT22;28312;43.460;11.810;2023-09-19T19:27:00;24.10;51.30
42135;DHT22;28312;43.460;11.810;2023-09-19T19:31:05;24.00;51.30
42135;DHT22;28312;43.460;11.810;2023-09-19T19:35:11;23.90;51.30
42135;DHT22;28312;43.460;11.810;2023-09-19T19:39:17;23.80;51.40
42135;DHT22;28312;43.460;11.810;2023-09-19T19:43:21;23.70;51.40
42135;DHT22;28312;43.460;11.810;2023-09-19T19:47:24;23.50;51.50
42135;DHT22;28312;43.460;11.810;2023-09-19T19:51:28;23.30;51.60
42135;DHT22;28312;43.460;11.810;2023-09-19T19:55:31;23.10;51.60
42135;DHT22;28312;43.460;11.810;2023-09-19T19:59:34;22.90;51.70
42135;DHT22;28312;43.460;11.810;2023-09-19T20:03:38;22.70;51.80
42135;DHT22;28312;43.460;11.810;2023-09-19T20:07:41;22.60;51.90
42135;DHT22;28312;43.460;11.810;2023-09-19T20:11:45;22.50;52.00
42135;DHT22;28312;43.460;11.810;2023-09-19T20:15:54;22.40;52.10
42135;DHT22;28312;43.460;11.810;2023-09-19T20:19:58;22.20;52.20
42135;DHT22;28312;43.460;11.810;2023-09-19T20:24:03;22.00;52.50
42135;DHT22;28312;43.460;11.810;2023-09-19T20:28:09;21.80;52.50
42135;DHT22;28312;43.460;11.810;2023-09-19T20:32:12;21.60;52.60
42135;DHT22;28312;43.460;11.810;2023-09-19T20:36:16;21.40;52.70
42135;DHT22;28312;43.460;11.810;2023-09-19T20:40:19;21.20;52.80
42135;DHT22;28312;43.460;11.810;2023-09-19T20:44:25;21.10;53.20
42135;DHT22;28312;43.460;11.810;2023-09-19T20:48:30;21.10;53.40
42135;DHT22;28312;43.460;11.810;2023-09-19T20:52:35;21.10;53.60
42135;DHT22;28312;43.460;11.810;2023-09-19T20:56:38;21.10;53.60
42135;DHT22;28312;43.460;11.810;2023-09-19T21:00:42;21.10;53.60
42135;DHT22;28312;43.460;11.810;2023-09-19T21:04:45;21.00;53.50
42135;DHT22;28312;43.460;11.810;2023-09-19T21:08:48;20.90;53.60
42135;DHT22;28312;43.460;11.810;2023-09-19T21:12:52;20.80;53.70
42135;DHT22;28312;43.460;11.810;2023-09-19T21:16:56;20.70;53.80
42135;DHT22;28312;43.460;11.810;2023-09-19T21:21:01;20.60;53.90
42135;DHT22;28312;43.460;11.810;2023-09-19T21:25:05;20.40;53.90
42135;DHT22;28312;43.460;11.810;2023-09-19T21:29:12;20.30;54.00
42135;DHT22;28312;43.460;11.810;2023-09-19T21:33:15;20.20;54.00
42135;DHT22;28312;43.460;11.810;2023-09-19T21:37:23;20.10;54.00
42135;DHT22;28312;43.460;11.810;2023-09-19T21:41:26;19.90;54.10
42135;DHT22;28312;43.460;11.810;2023-09-19T21:45:32;19.80;54.30
42135;DHT22;28312;43.460;11.810;2023-09-19T21:49:36;19.70;54.30
42135;DHT22;28312;43.460;11.810;2023-09-19T21:53:39;19.70;54.40
42135;DHT22;28312;43.460;11.810;2023-09-19T21:57:42;19.70;54.60
42135;DHT22;28312;43.460;11.810;2023-09-19T22:01:45;19.60;54.70
42135;DHT22;28312;43.460;11.810;2023-09-19T22:05:50;19.60;54.70
42135;DHT22;28312;43.460;11.810;2023-09-19T22:09:53;19.50;54.70
42135;DHT22;28312;43.460;11.810;2023-09-19T22:13:57;19.40;54.60
42135;DHT22;28312;43.460;11.810;2023-09-19T22:18:00;19.20;54.70
42135;DHT22;28312;43.460;11.810;2023-09-19T22:22:08;19.00;54.70
42135;DHT22;28312;43.460;11.810;2023-09-19T22:26:16;18.80;54.90
42135;DHT22;28312;43.460;11.810;2023-09-19T22:30:24;18.70;54.90
42135;DHT22;28312;43.460;11.810;2023-09-19T22:34:27;18.60;55.10
42135;DHT22;28312;43.460;11.810;2023-09-19T22:38:31;18.40;55.20
42135;DHT22;28312;43.460;11.810;2023-09-19T22:42:37;18.40;55.10
42135;DHT22;28312;43.460;11.810;2023-09-19T22:46:40;18.30;55.10
42135;DHT22;28312;43.460;11.810;2023-09-19T22:50:45;18.10;55.30
42135;DHT22;28312;43.460;11.810;2023-09-19T22:54:49;17.90;55.40
42135;DHT22;28312;43.460;11.810;2023-09-19T22:58:52;17.90;55.30
42135;DHT22;28312;43.460;11.810;2023-09-19T23:02:57;17.70;55.20
42135;DHT22;28312;43.460;11.810;2023-09-19T23:07:01;17.70;55.40
42135;DHT22;28312;43.460;11.810;2023-09-19T23:11:08;17.50;55.50
42135;DHT22;28312;43.460;11.810;2023-09-19T23:15:12;17.40;55.50
42135;DHT22;28312;43.460;11.810;2023-09-19T23:19:20;17.40;55.50
42135;DHT22;28312;43.460;11.810;2023-09-19T23:23:30;17.30;55.50
42135;DHT22;28312;43.460;11.810;2023-09-19T23:27:34;17.20;55.50
42135;DHT22;28312;43.460;11.810;2023-09-19T23:31:39;17.20;55.60
42135;DHT22;28312;43.460;11.810;2023-09-19T23:35:46;17.10;55.70
42135;DHT22;28312;43.460;11.810;2023-09-19T23:39:50;17.00;55.90
42135;DHT22;28312;43.460;11.810;2023-09-19T23:43:54;16.90;55.90
42135;DHT22;28312;43.460;11.810;2023-09-19T23:47:57;16.80;56.00
42135;DHT22;28312;43.460;11.810;2023-09-19T23:52:01;16.80;55.90
42135;DHT22;28312;43.460;11.810;2023-09-19T23:56:04;16.60;56.00
